Time;durP1;ratioP1;P1;durP2;ratioP2;P2;SDS_P1;SDS_P2;PMS_P1;PMS_P2;Temp;Humidity;BMP_temperature;BMP_pressure;BME280_temperature;BME280_humidity;BME280_pressure;Samples;Min_cycle;Max_cycle;Signal;HPM_P1;HPM_P2
2021/12/11 00:00:15;;;;;;;2.10;1.10;;;3.90;85.60;;;;;;5124021;28;21041;-72
2021/12/11 00:02:46;;;;;;;1.80;0.80;;;3.90;85.70;;;;;;5128151;27;20192;-73
2021/12/11 00:05:17;;;;;;;3.55;0.93;;;3.90;85.50;;;;;;5110960;28;20192;-72
2021/12/11 00:07:44;;;;;;;1.95;0.90;;;3.90;85.30;;;;;;5124514;27;20306;-74
2021/12/11 00:10:18;;;;;;;3.40;1.15;;;3.90;85.20;;;;;;5128311;28;20275;-72
2021/12/11 00:12:48;;;;;;;2.05;1.00;;;3.90;85.20;;;;;;5125227;28;20227;-73
2021/12/11 00:15:19;;;;;;;2.97;1.10;;;3.90;85.40;;;;;;5124645;28;20188;-73
2021/12/11 00:17:47;;;;;;;4.65;1.10;;;3.90;85.30;;;;;;5127984;28;20203;-72
2021/12/11 00:20:19;;;;;;;1.50;0.70;;;3.90;85.40;;;;;;5117277;28;20196;-72
2021/12/11 00:22:47;;;;;;;3.17;1.00;;;3.80;85.30;;;;;;5080278;28;20312;-72
2021/12/11 00:25:18;;;;;;;1.63;0.90;;;3.80;85.40;;;;;;5053446;28;20252;-73
2021/12/11 00:27:49;;;;;;;3.10;1.38;;;3.80;85.40;;;;;;5054213;28;20591;-74
2021/12/11 00:30:24;;;;;;;1.60;0.82;;;3.90;85.60;;;;;;5079671;28;20281;-74
2021/12/11 00:32:59;;;;;;;1.60;0.80;;;3.90;85.50;;;;;;5072730;28;20217;-73
2021/12/11 00:35:26;;;;;;;2.20;0.95;;;3.90;85.30;;;;;;5062797;28;20213;-74
2021/12/11 00:38:00;;;;;;;3.13;2.10;;;3.90;85.20;;;;;;5079048;28;20259;-73
2021/12/11 00:40:29;;;;;;;4.47;1.10;;;3.80;86.00;;;;;;5072937;28;20231;-73
2021/12/11 00:43:03;;;;;;;2.67;1.00;;;3.90;85.20;;;;;;5088247;28;20201;-73
2021/12/11 00:45:33;;;;;;;3.22;0.82;;;3.90;85.10;;;;;;5089752;28;20221;-73
2021/12/11 00:48:03;;;;;;;11.10;3.60;;;3.90;84.80;;;;;;5089480;28;20189;-73
2021/12/11 00:50:35;;;;;;;7.15;2.55;;;3.90;85.00;;;;;;5090851;28;20186;-73
2021/12/11 00:53:09;;;;;;;2.55;1.20;;;3.90;84.70;;;;;;5093889;28;20229;-72
2021/12/11 00:55:47;;;;;;;1.90;0.80;;;3.90;85.00;;;;;;5093279;28;20193;-72
2021/12/11 00:58:18;;;;;;;1.70;1.08;;;3.90;84.90;;;;;;5093231;28;20197;-72
2021/12/11 01:00:49;;;;;;;4.57;2.45;;;3.90;84.70;;;;;;5092943;28;20185;-73
2021/12/11 01:03:20;;;;;;;14.52;6.22;;;3.90;84.50;;;;;;5093590;28;20198;-72
2021/12/11 01:05:51;;;;;;;2.75;1.67;;;4.00;84.40;;;;;;5092958;28;20231;-71
2021/12/11 01:08:35;;;;;;;3.50;1.08;;;4.00;84.20;;;;;;5093005;28;20193;-71
2021/12/11 01:11:09;;;;;;;1.83;0.98;;;3.90;84.10;;;;;;5093668;28;20197;-71
2021/12/11 01:13:43;;;;;;;2.08;0.98;;;3.90;83.70;;;;;;5093091;28;20193;-72
2021/12/11 01:16:14;;;;;;;1.40;0.70;;;3.90;83.90;;;;;;5094661;28;20239;-71
2021/12/11 01:18:45;;;;;;;2.13;0.80;;;4.00;83.90;;;;;;5094087;28;20242;-72
2021/12/11 01:21:42;;;;;;;3.45;1.00;;;4.00;84.00;;;;;;5094583;28;20201;-72
2021/12/11 01:24:16;;;;;;;1.85;0.90;;;4.00;83.90;;;;;;5093912;28;20186;-72
2021/12/11 01:26:52;;;;;;;2.47;0.88;;;4.00;83.90;;;;;;5094075;28;20232;-72
2021/12/11 01:29:21;;;;;;;1.90;0.90;;;4.00;83.70;;;;;;5093465;28;20193;-72
2021/12/11 01:31:50;;;;;;;3.60;0.93;;;4.00;83.80;;;;;;5093116;28;20275;-71
2021/12/11 01:34:19;;;;;;;1.75;1.00;;;4.10;83.90;;;;;;5094167;28;20279;-72
2021/12/11 01:36:47;;;;;;;2.35;1.00;;;4.00;83.60;;;;;;5093171;28;20189;-72
2021/12/11 01:39:18;;;;;;;4.57;1.20;;;4.00;83.70;;;;;;5093332;28;20637;-72
2021/12/11 01:41:52;;;;;;;2.50;1.10;;;4.00;83.70;;;;;;5093692;28;20219;-72
2021/12/11 01:44:25;;;;;;;2.60;1.13;;;4.10;83.60;;;;;;5094289;28;20205;-72
2021/12/11 01:46:58;;;;;;;2.38;0.80;;;4.10;83.40;;;;;;5093623;28;20764;-72
2021/12/11 01:49:25;;;;;;;1.40;0.80;;;4.10;83.50;;;;;;5093664;28;20551;-72
2021/12/11 01:51:56;;;;;;;1.50;0.70;;;4.10;83.30;;;;;;5093699;28;20229;-72
2021/12/11 01:54:27;;;;;;;2.83;1.13;;;4.10;83.00;;;;;;5093573;28;20640;-72
2021/12/11 01:57:00;;;;;;;3.35;1.10;;;4.10;83.00;;;;;;5093956;28;20185;-72
2021/12/11 01:59:30;;;;;;;1.67;0.80;;;4.10;82.90;;;;;;5093401;28;20271;-72
2021/12/11 02:02:03;;;;;;;1.73;0.80;;;4.10;83.00;;;;;;5093287;28;20186;-72
2021/12/11 02:04:32;;;;;;;4.32;2.75;;;4.10;82.70;;;;;;5093762;28;20229;-71
2021/12/11 02:07:04;;;;;;;2.10;1.10;;;4.10;82.60;;;;;;5092845;28;20213;-72
2021/12/11 02:09:34;;;;;;;3.00;1.80;;;4.10;82.40;;;;;;5092143;28;20605;-71
2021/12/11 02:12:07;;;;;;;1.45;0.77;;;4.10;82.40;;;;;;5091981;28;20178;-71
2021/12/11 02:14:40;;;;;;;4.05;1.25;;;4.10;82.40;;;;;;5093447;28;20232;-71
2021/12/11 02:17:14;;;;;;;2.50;0.70;;;4.10;81.80;;;;;;5092864;28;20181;-72
2021/12/11 02:19:44;;;;;;;2.25;0.98;;;4.10;82.20;;;;;;5093447;28;20190;-71
2021/12/11 02:22:15;;;;;;;1.60;0.80;;;4.10;82.20;;;;;;5092856;28;20276;-72
2021/12/11 02:24:45;;;;;;;1.67;0.80;;;4.10;82.20;;;;;;5093209;28;20605;-72
2021/12/11 02:27:16;;;;;;;1.75;0.90;;;4.10;82.00;;;;;;5092221;28;20278;-72
2021/12/11 02:29:49;;;;;;;1.63;0.80;;;4.10;82.30;;;;;;5092181;28;20269;-71
2021/12/11 02:32:27;;;;;;;3.35;1.25;;;4.10;82.40;;;;;;5092667;28;20190;-72
2021/12/11 02:34:58;;;;;;;2.33;1.00;;;4.10;82.00;;;;;;5093094;28;20196;-71
2021/12/11 02:37:36;;;;;;;2.67;1.00;;;4.10;82.20;;;;;;5092667;28;20599;-71
2021/12/11 02:40:11;;;;;;;1.73;0.88;;;4.10;82.00;;;;;;5093342;28;20220;-71
2021/12/11 02:42:41;;;;;;;1.60;0.70;;;4.10;82.20;;;;;;5092527;28;20624;-72
2021/12/11 02:45:14;;;;;;;2.05;0.98;;;4.10;82.10;;;;;;5092938;28;20204;-71
2021/12/11 02:47:45;;;;;;;2.63;1.55;;;4.20;82.90;;;;;;5092299;28;20212;-71
2021/12/11 02:50:20;;;;;;;3.05;1.00;;;4.20;81.80;;;;;;5092885;28;20656;-71
2021/12/11 02:52:53;;;;;;;1.90;0.88;;;4.20;81.70;;;;;;5092252;28;20192;-71
2021/12/11 02:55:27;;;;;;;2.10;1.20;;;4.20;81.40;;;;;;5092720;28;20648;-72
2021/12/11 02:57:58;;;;;;;1.85;1.00;;;4.20;81.50;;;;;;5092287;28;20193;-73
2021/12/11 03:00:29;;;;;;;2.63;1.20;;;4.30;81.60;;;;;;5092715;28;20193;-71
2021/12/11 03:03:03;;;;;;;3.50;1.23;;;4.30;80.90;;;;;;5092376;28;20190;-71
2021/12/11 03:05:40;;;;;;;1.67;0.95;;;4.30;80.90;;;;;;5092830;28;20216;-71
2021/12/11 03:08:11;;;;;;;1.50;0.75;;;4.20;81.10;;;;;;5092023;28;20670;-71
2021/12/11 03:10:41;;;;;;;2.72;0.90;;;4.20;80.90;;;;;;5092701;28;20190;-72
2021/12/11 03:13:08;;;;;;;3.45;0.90;;;4.10;81.00;;;;;;5091520;28;20182;-72
2021/12/11 03:15:36;;;;;;;2.78;1.35;;;4.20;81.10;;;;;;5092340;28;20193;-71
2021/12/11 03:18:06;;;;;;;1.65;0.60;;;4.20;80.90;;;;;;5091767;28;20225;-72
2021/12/11 03:20:38;;;;;;;2.58;1.05;;;4.20;80.80;;;;;;5092506;28;20197;-72
2021/12/11 03:23:08;;;;;;;2.30;0.95;;;4.20;80.70;;;;;;5092045;28;20243;-72
2021/12/11 03:25:36;;;;;;;1.50;0.77;;;4.20;80.50;;;;;;5092444;28;20185;-71
2021/12/11 03:28:05;;;;;;;2.03;0.93;;;4.20;80.50;;;;;;5051702;28;20238;-74
2021/12/11 03:30:38;;;;;;;2.75;1.10;;;4.20;80.00;;;;;;5051556;28;20273;-71
2021/12/11 03:33:09;;;;;;;1.88;0.70;;;4.10;80.00;;;;;;5051734;28;20281;-75
2021/12/11 03:35:37;;;;;;;1.67;0.80;;;4.10;80.10;;;;;;5032163;28;20231;-72
2021/12/11 03:38:05;;;;;;;3.35;1.10;;;4.10;79.70;;;;;;5031909;28;20555;-73
2021/12/11 03:40:34;;;;;;;1.67;0.95;;;4.10;79.80;;;;;;5051411;28;20198;-71
2021/12/11 03:43:04;;;;;;;1.80;0.82;;;4.10;79.70;;;;;;5052066;28;20195;-72
2021/12/11 03:45:40;;;;;;;1.67;0.77;;;4.10;79.70;;;;;;5051514;28;20512;-73
2021/12/11 03:48:11;;;;;;;3.38;1.20;;;4.10;79.50;;;;;;5051094;28;20301;-74
2021/12/11 03:50:39;;;;;;;1.65;1.00;;;4.10;79.70;;;;;;5051903;28;20211;-71
2021/12/11 03:53:08;;;;;;;5.72;1.00;;;4.10;79.40;;;;;;5051554;28;20190;-72
2021/12/11 03:55:41;;;;;;;1.90;0.68;;;4.20;79.50;;;;;;5051723;28;20202;-72
2021/12/11 03:58:08;;;;;;;2.33;1.08;;;4.20;79.60;;;;;;5051508;28;20179;-72
2021/12/11 04:00:39;;;;;;;1.70;0.90;;;4.10;79.50;;;;;;5051952;28;20214;-73
2021/12/11 04:03:09;;;;;;;1.60;0.90;;;4.10;79.70;;;;;;5051426;28;20246;-76
2021/12/11 04:05:39;;;;;;;2.30;0.98;;;4.20;79.80;;;;;;5052138;28;20195;-72
2021/12/11 04:08:08;;;;;;;1.70;1.08;;;4.10;79.70;;;;;;5051043;28;20214;-72
2021/12/11 04:10:37;;;;;;;2.35;0.90;;;4.10;79.80;;;;;;5051493;28;20194;-72
2021/12/11 04:13:08;;;;;;;3.22;0.80;;;4.10;80.00;;;;;;5051486;28;20191;-72
2021/12/11 04:15:39;;;;;;;2.05;1.05;;;4.10;80.10;;;;;;5051950;28;20585;-72
2021/12/11 04:18:07;;;;;;;1.73;0.75;;;4.20;80.30;;;;;;5051398;28;20213;-72
2021/12/11 04:20:37;;;;;;;1.70;1.00;;;4.20;80.30;;;;;;5051994;28;20222;-72
2021/12/11 04:23:04;;;;;;;2.25;1.10;;;4.20;80.00;;;;;;5051284;28;20646;-72
2021/12/11 04:25:32;;;;;;;1.70;0.90;;;4.10;80.00;;;;;;5052793;28;20197;-71
2021/12/11 04:28:02;;;;;;;1.30;0.60;;;4.10;80.00;;;;;;5074959;28;20671;-76
2021/12/11 04:30:30;;;;;;;3.67;1.35;;;4.10;80.10;;;;;;5095864;28;20193;-73
2021/12/11 04:32:59;;;;;;;1.70;1.00;;;4.10;80.00;;;;;;5095826;28;21006;-72
2021/12/11 04:35:29;;;;;;;2.22;1.20;;;4.10;80.10;;;;;;5095380;28;20189;-72
2021/12/11 04:38:00;;;;;;;2.25;0.75;;;4.10;80.10;;;;;;5095384;28;20251;-72
2021/12/11 04:40:34;;;;;;;2.55;0.80;;;4.10;80.20;;;;;;5095791;28;20194;-71
2021/12/11 04:43:06;;;;;;;2.15;0.80;;;4.10;80.10;;;;;;5095017;28;20583;-72
2021/12/11 04:45:39;;;;;;;2.50;1.10;;;4.10;80.20;;;;;;5095551;28;20189;-71
2021/12/11 04:48:14;;;;;;;1.67;0.70;;;4.10;80.10;;;;;;5094922;28;20210;-73
2021/12/11 04:50:49;;;;;;;1.80;0.82;;;4.10;80.20;;;;;;5095398;28;20279;-72
2021/12/11 04:53:34;;;;;;;3.92;1.80;;;4.10;80.20;;;;;;5095037;28;20215;-72
2021/12/11 04:56:23;;;;;;;1.77;0.82;;;4.10;80.30;;;;;;5095140;28;20227;-72
2021/12/11 04:59:13;;;;;;;3.15;1.13;;;4.10;80.60;;;;;;5095092;28;20271;-72
2021/12/11 05:01:52;;;;;;;2.75;0.85;;;4.00;80.70;;;;;;5095221;28;20194;-72
2021/12/11 05:04:41;;;;;;;1.83;1.00;;;4.10;80.90;;;;;;5093959;28;20247;-71
2021/12/11 05:07:22;;;;;;;2.40;0.75;;;4.10;80.50;;;;;;5095299;28;20592;-71
2021/12/11 05:09:56;;;;;;;2.70;1.05;;;4.00;80.60;;;;;;5074897;28;20205;-72
2021/12/11 05:12:34;;;;;;;2.05;1.15;;;4.00;80.70;;;;;;5074557;28;20281;-76
2021/12/11 05:15:05;;;;;;;2.17;1.02;;;4.00;80.80;;;;;;5074816;28;20660;-71
2021/12/11 05:17:32;;;;;;;1.75;0.93;;;4.00;80.90;;;;;;5075198;28;20246;-72
2021/12/11 05:19:59;;;;;;;2.78;0.75;;;4.00;80.90;;;;;;5094567;28;20197;-71
2021/12/11 05:22:27;;;;;;;1.85;0.80;;;4.00;80.60;;;;;;5094610;28;20661;-71
2021/12/11 05:24:57;;;;;;;1.40;0.73;;;4.00;80.60;;;;;;5093008;28;20189;-72
2021/12/11 05:27:25;;;;;;;2.65;1.35;;;4.00;80.80;;;;;;5092946;28;20273;-72
2021/12/11 05:29:53;;;;;;;2.88;0.90;;;4.00;80.60;;;;;;5094369;28;20293;-72
2021/12/11 05:32:25;;;;;;;2.40;0.95;;;4.00;80.70;;;;;;5094657;28;20194;-72
2021/12/11 05:34:54;;;;;;;3.45;1.05;;;4.00;79.90;;;;;;5093493;28;20181;-71
2021/12/11 05:37:22;;;;;;;2.42;1.17;;;4.00;80.60;;;;;;5093703;28;20186;-71
2021/12/11 05:39:49;;;;;;;1.90;1.00;;;4.00;80.50;;;;;;5094222;28;20284;-73
2021/12/11 05:42:17;;;;;;;1.80;0.90;;;4.00;81.30;;;;;;5093177;28;20272;-72
2021/12/11 05:44:45;;;;;;;2.67;0.88;;;4.00;80.80;;;;;;5093840;28;20773;-71
2021/12/11 05:47:13;;;;;;;2.25;1.20;;;4.00;80.50;;;;;;5093811;28;20186;-71
2021/12/11 05:49:44;;;;;;;2.20;1.00;;;4.00;80.50;;;;;;5094233;28;20598;-73
2021/12/11 05:52:12;;;;;;;1.90;1.20;;;4.00;80.80;;;;;;5093957;28;20181;-72
2021/12/11 05:54:43;;;;;;;2.47;1.30;;;4.00;80.30;;;;;;5094043;28;20675;-73
2021/12/11 05:57:12;;;;;;;3.85;1.30;;;4.00;80.50;;;;;;5093236;28;20188;-71
2021/12/11 05:59:42;;;;;;;2.63;0.95;;;4.00;80.60;;;;;;5094171;28;20194;-73
2021/12/11 06:02:12;;;;;;;2.08;1.00;;;4.00;80.60;;;;;;5093070;28;20213;-71
2021/12/11 06:04:43;;;;;;;1.60;0.90;;;4.00;80.70;;;;;;5094220;28;20189;-71
2021/12/11 06:07:14;;;;;;;5.38;1.00;;;4.00;80.70;;;;;;5093526;28;20542;-72
2021/12/11 06:09:45;;;;;;;1.70;0.95;;;4.00;80.70;;;;;;5093826;28;20214;-71
2021/12/11 06:12:15;;;;;;;2.10;1.08;;;4.00;80.90;;;;;;5093395;28;20276;-72
2021/12/11 06:14:44;;;;;;;2.45;1.25;;;4.00;80.90;;;;;;5093951;28;20193;-72
2021/12/11 06:17:15;;;;;;;2.90;0.93;;;4.00;80.70;;;;;;5092861;28;20186;-73
2021/12/11 06:19:51;;;;;;;1.77;1.10;;;4.00;80.90;;;;;;5093783;28;20204;-72
2021/12/11 06:22:18;;;;;;;2.20;1.05;;;4.10;81.00;;;;;;5093208;28;20195;-72
2021/12/11 06:24:45;;;;;;;1.60;0.70;;;4.00;81.00;;;;;;5093733;28;20308;-71
2021/12/11 06:27:13;;;;;;;1.83;1.30;;;4.00;80.70;;;;;;5092669;28;20221;-72
2021/12/11 06:29:40;;;;;;;1.85;0.88;;;4.00;80.70;;;;;;5093563;28;20225;-72
2021/12/11 06:32:08;;;;;;;2.67;0.95;;;4.00;81.00;;;;;;5093097;28;20640;-72
2021/12/11 06:34:36;;;;;;;2.30;1.00;;;4.00;80.90;;;;;;5093332;28;20690;-72
2021/12/11 06:37:08;;;;;;;1.50;0.70;;;4.00;80.90;;;;;;5092883;28;20189;-71
2021/12/11 06:39:36;;;;;;;4.97;1.40;;;4.00;81.00;;;;;;5093143;28;20575;-71
2021/12/11 06:42:07;;;;;;;3.25;1.48;;;4.00;81.00;;;;;;5092443;28;20196;-71
2021/12/11 06:44:34;;;;;;;3.40;1.00;;;4.00;80.80;;;;;;5093299;28;20280;-71
2021/12/11 06:47:04;;;;;;;2.00;1.00;;;4.00;81.00;;;;;;5092607;28;20185;-71
2021/12/11 06:49:34;;;;;;;2.85;1.45;;;4.00;81.20;;;;;;5092540;28;20285;-71
2021/12/11 06:52:03;;;;;;;1.65;0.70;;;4.00;81.40;;;;;;5092816;28;20190;-72
2021/12/11 06:54:31;;;;;;;2.22;0.98;;;4.00;81.40;;;;;;5093130;28;20197;-72
2021/12/11 06:56:59;;;;;;;2.22;0.77;;;4.00;81.30;;;;;;5092676;28;20246;-71
2021/12/11 06:59:26;;;;;;;2.25;1.00;;;4.00;81.40;;;;;;5093009;28;20194;-71
2021/12/11 07:01:54;;;;;;;1.92;1.02;;;4.00;81.60;;;;;;5091929;28;20189;-71
2021/12/11 07:04:21;;;;;;;1.90;0.95;;;4.00;81.70;;;;;;5092018;28;20304;-72
2021/12/11 07:06:52;;;;;;;1.65;0.95;;;4.00;81.90;;;;;;5092470;28;20192;-71
2021/12/11 07:09:22;;;;;;;1.88;0.90;;;4.00;81.90;;;;;;5092718;28;20231;-72
2021/12/11 07:11:52;;;;;;;2.00;0.90;;;4.00;81.80;;;;;;5092408;28;20211;-71
2021/12/11 07:14:22;;;;;;;1.67;0.90;;;4.00;81.80;;;;;;5092706;28;20194;-73
2021/12/11 07:16:50;;;;;;;2.20;1.50;;;4.10;81.90;;;;;;5092482;28;20624;-71
2021/12/11 07:19:18;;;;;;;1.95;1.00;;;4.10;81.90;;;;;;5092570;28;20590;-72
2021/12/11 07:21:50;;;;;;;1.90;1.00;;;4.00;81.80;;;;;;5091870;28;20586;-72
2021/12/11 07:24:19;;;;;;;1.90;1.23;;;4.10;81.80;;;;;;5092673;28;20288;-71
2021/12/11 07:26:48;;;;;;;1.70;1.10;;;4.10;81.80;;;;;;5091983;28;20217;-71
2021/12/11 07:29:20;;;;;;;2.38;1.20;;;4.10;81.60;;;;;;5092504;28;20792;-71
2021/12/11 07:31:49;;;;;;;1.90;0.90;;;4.10;81.60;;;;;;5091989;28;20185;-71
2021/12/11 07:34:17;;;;;;;2.17;0.93;;;4.10;81.50;;;;;;5092322;28;20239;-72
2021/12/11 07:36:46;;;;;;;2.25;1.05;;;4.10;81.60;;;;;;5091792;28;20189;-71
2021/12/11 07:39:16;;;;;;;1.70;0.80;;;4.10;81.30;;;;;;5089079;28;20284;-72
2021/12/11 07:41:43;;;;;;;2.90;1.23;;;4.20;81.40;;;;;;5090495;28;20264;-71
2021/12/11 07:44:10;;;;;;;4.13;1.80;;;4.20;81.30;;;;;;5090748;28;20196;-72
2021/12/11 07:46:40;;;;;;;2.30;1.40;;;4.20;81.30;;;;;;5090169;28;20224;-72
2021/12/11 07:49:07;;;;;;;2.70;1.20;;;4.20;80.70;;;;;;5090779;28;20221;-72
2021/12/11 07:51:37;;;;;;;2.38;1.30;;;4.20;81.20;;;;;;5090390;28;20197;-71
2021/12/11 07:54:05;;;;;;;2.78;1.10;;;4.20;81.30;;;;;;5090761;28;20189;-71
2021/12/11 07:56:32;;;;;;;2.63;1.10;;;4.30;81.30;;;;;;5085842;28;20268;-73
2021/12/11 07:59:03;;;;;;;2.15;1.30;;;4.30;81.30;;;;;;5090834;28;20238;-72
2021/12/11 08:01:35;;;;;;;1.73;0.88;;;4.30;81.30;;;;;;5094432;28;20192;-72
2021/12/11 08:04:06;;;;;;;1.92;1.13;;;4.30;81.40;;;;;;5090793;28;20193;-71
2021/12/11 08:06:35;;;;;;;2.30;1.08;;;4.40;81.30;;;;;;5094282;28;20763;-74
2021/12/11 08:09:04;;;;;;;6.80;1.52;;;4.40;81.30;;;;;;5094549;28;20213;-71
2021/12/11 08:11:31;;;;;;;1.92;1.20;;;4.40;82.00;;;;;;5094250;28;20185;-72
2021/12/11 08:14:00;;;;;;;2.30;1.15;;;4.40;81.10;;;;;;5094692;28;20194;-72
2021/12/11 08:16:34;;;;;;;2.13;1.25;;;4.40;81.00;;;;;;5094023;28;20189;-72
2021/12/11 08:19:05;;;;;;;2.40;1.40;;;4.50;81.10;;;;;;5090181;28;20521;-71
2021/12/11 08:21:33;;;;;;;2.17;1.10;;;4.50;80.90;;;;;;5094093;28;20220;-71
2021/12/11 08:24:05;;;;;;;3.60;1.27;;;4.50;81.10;;;;;;5094369;28;20194;-71
2021/12/11 08:26:33;;;;;;;2.05;1.20;;;4.50;81.00;;;;;;5094044;28;20221;-71
2021/12/11 08:29:00;;;;;;;1.73;1.08;;;4.50;81.00;;;;;;5094405;28;20312;-72
2021/12/11 08:31:28;;;;;;;1.90;0.95;;;4.50;81.60;;;;;;5093795;28;20185;-73
2021/12/11 08:33:55;;;;;;;1.90;1.00;;;4.50;80.90;;;;;;5093769;28;20239;-72
2021/12/11 08:36:25;;;;;;;2.03;0.95;;;4.60;81.10;;;;;;5093824;28;20644;-75
2021/12/11 08:38:53;;;;;;;1.63;1.00;;;4.60;80.90;;;;;;5093860;28;20652;-72
2021/12/11 08:41:25;;;;;;;1.60;0.70;;;4.70;80.90;;;;;;5093436;28;20709;-73
2021/12/11 08:43:58;;;;;;;2.38;1.20;;;4.70;80.80;;;;;;5093730;28;20189;-72
2021/12/11 08:46:28;;;;;;;2.22;1.50;;;4.70;80.70;;;;;;5093914;28;20192;-73
2021/12/11 08:48:58;;;;;;;3.58;1.10;;;4.70;80.90;;;;;;5093030;28;20206;-72
2021/12/11 08:51:32;;;;;;;2.05;1.50;;;4.70;80.90;;;;;;5093887;28;20193;-72
2021/12/11 08:54:00;;;;;;;2.80;1.50;;;4.80;80.70;;;;;;5093680;28;20598;-72
2021/12/11 08:56:28;;;;;;;2.53;1.23;;;4.80;80.60;;;;;;5093201;28;20251;-72
2021/12/11 08:58:57;;;;;;;3.80;2.28;;;4.80;81.00;;;;;;5093554;28;20190;-72
2021/12/11 09:01:30;;;;;;;4.32;1.33;;;4.90;80.10;;;;;;5092724;28;20887;-74
2021/12/11 09:04:03;;;;;;;2.25;1.10;;;4.90;79.80;;;;;;5092995;28;20197;-73
2021/12/11 09:06:36;;;;;;;2.17;1.10;;;4.90;80.10;;;;;;5090452;28;21146;-77
2021/12/11 09:09:07;;;;;;;5.30;1.40;;;4.90;79.70;;;;;;5093010;28;20313;-73
2021/12/11 09:11:38;;;;;;;3.00;2.05;;;5.00;79.20;;;;;;5092199;28;20229;-72
2021/12/11 09:14:11;;;;;;;5.32;2.42;;;5.00;79.20;;;;;;5094132;28;20224;-72
2021/12/11 09:16:42;;;;;;;2.85;1.48;;;5.00;79.20;;;;;;5093717;28;20197;-72
2021/12/11 09:19:15;;;;;;;3.53;2.08;;;5.10;79.20;;;;;;5093906;28;20296;-73
2021/12/11 09:21:50;;;;;;;2.88;1.85;;;5.10;79.10;;;;;;5093748;28;20280;-72
2021/12/11 09:24:25;;;;;;;4.20;1.80;;;5.10;79.00;;;;;;5093718;28;20225;-72
2021/12/11 09:26:59;;;;;;;3.28;2.17;;;5.10;78.90;;;;;;5093612;28;20228;-72
2021/12/11 09:29:31;;;;;;;6.07;1.65;;;5.20;78.80;;;;;;5089363;28;20598;-72
2021/12/11 09:32:10;;;;;;;3.28;1.40;;;5.20;78.80;;;;;;5093687;28;20218;-72
2021/12/11 09:34:41;;;;;;;4.90;1.80;;;5.20;78.60;;;;;;5089732;28;20228;-71
2021/12/11 09:37:10;;;;;;;4.18;1.20;;;5.20;78.40;;;;;;5092739;28;20181;-72
2021/12/11 09:39:40;;;;;;;2.13;1.30;;;5.30;78.70;;;;;;5093071;28;20678;-72
2021/12/11 09:42:07;;;;;;;2.67;1.25;;;5.30;78.40;;;;;;5093363;28;20194;-71
2021/12/11 09:44:38;;;;;;;7.18;2.30;;;5.30;78.60;;;;;;5090009;28;20205;-72
2021/12/11 09:47:11;;;;;;;2.80;1.67;;;5.30;78.80;;;;;;5092458;28;20285;-72
2021/12/11 09:49:44;;;;;;;2.15;1.30;;;5.30;78.40;;;;;;5089071;28;20309;-72
2021/12/11 09:52:19;;;;;;;1.88;1.35;;;5.40;78.60;;;;;;5091690;28;20210;-72
2021/12/11 09:54:48;;;;;;;3.50;1.17;;;5.40;78.60;;;;;;5093173;28;20615;-71
2021/12/11 09:57:18;;;;;;;2.45;1.52;;;5.40;78.50;;;;;;5092355;28;20284;-71
2021/12/11 09:59:50;;;;;;;1.77;1.10;;;5.40;78.30;;;;;;5092522;28;20197;-72
2021/12/11 10:02:20;;;;;;;2.70;1.20;;;5.40;77.90;;;;;;5089972;28;20284;-71
2021/12/11 10:04:58;;;;;;;2.10;0.98;;;5.40;78.10;;;;;;5092766;28;20632;-71
2021/12/11 10:07:32;;;;;;;5.85;1.80;;;5.50;78.00;;;;;;5091743;28;20485;-71
2021/12/11 10:10:09;;;;;;;2.97;1.40;;;5.50;78.00;;;;;;5092508;28;20217;-71
2021/12/11 10:12:42;;;;;;;1.90;1.30;;;5.60;78.10;;;;;;5091955;28;20217;-71
2021/12/11 10:15:16;;;;;;;2.25;1.30;;;5.60;78.00;;;;;;5092597;28;20604;-72
2021/12/11 10:17:46;;;;;;;3.40;1.52;;;5.60;77.80;;;;;;5092177;28;20252;-72
2021/12/11 10:20:20;;;;;;;2.47;1.10;;;5.70;77.80;;;;;;5092432;28;20311;-73
2021/12/11 10:22:50;;;;;;;2.40;1.50;;;5.70;77.70;;;;;;5092324;28;20590;-71
2021/12/11 10:25:20;;;;;;;6.00;1.63;;;5.70;77.20;;;;;;5088653;28;20193;-72
2021/12/11 10:27:47;;;;;;;3.22;1.70;;;5.70;77.30;;;;;;5091650;28;20308;-71
2021/12/11 10:30:20;;;;;;;2.05;1.23;;;5.80;77.40;;;;;;5091822;28;20220;-71
2021/12/11 10:32:48;;;;;;;1.92;1.10;;;5.80;76.90;;;;;;5090505;28;20276;-71
2021/12/11 10:35:18;;;;;;;2.33;1.30;;;5.70;76.60;;;;;;5092071;28;20300;-72
2021/12/11 10:37:46;;;;;;;3.63;1.67;;;5.60;77.20;;;;;;5091170;28;20278;-71
2021/12/11 10:40:19;;;;;;;5.70;3.50;;;5.50;78.20;;;;;;5087652;28;20288;-71
2021/12/11 10:42:50;;;;;;;4.63;3.00;;;5.50;79.70;;;;;;5091977;28;20277;-72
2021/12/11 10:45:19;;;;;;;5.72;2.58;;;5.50;79.20;;;;;;5091130;28;20620;-72
2021/12/11 10:47:50;;;;;;;2.05;1.30;;;5.50;79.70;;;;;;5088752;28;20613;-71
2021/12/11 10:50:28;;;;;;;3.70;1.40;;;5.60;79.40;;;;;;5091564;28;20258;-71
2021/12/11 10:52:57;;;;;;;2.30;1.60;;;5.60;79.00;;;;;;5091287;28;20220;-72
2021/12/11 10:55:28;;;;;;;1.85;1.17;;;5.60;78.70;;;;;;5091470;28;20707;-71
2021/12/11 10:57:57;;;;;;;2.60;1.90;;;5.60;78.30;;;;;;5091107;28;20192;-72
2021/12/11 11:00:30;;;;;;;2.30;1.65;;;5.70;77.90;;;;;;5091343;28;20284;-72
2021/12/11 11:02:58;;;;;;;2.13;1.55;;;5.70;77.50;;;;;;5091057;28;20276;-72
2021/12/11 11:05:29;;;;;;;2.42;1.85;;;5.70;77.50;;;;;;5084281;28;20237;-75
2021/12/11 11:07:56;;;;;;;3.38;2.45;;;5.70;77.60;;;;;;5089767;28;20186;-71
2021/12/11 11:10:28;;;;;;;4.50;2.25;;;5.70;77.60;;;;;;5089962;28;20636;-71
2021/12/11 11:12:57;;;;;;;3.17;1.98;;;5.80;77.20;;;;;;5089957;28;20202;-71
2021/12/11 11:15:27;;;;;;;2.53;1.88;;;5.80;77.10;;;;;;5090514;28;20193;-71
2021/12/11 11:17:55;;;;;;;3.08;2.40;;;5.80;76.80;;;;;;5087207;28;20324;-72
2021/12/11 11:20:27;;;;;;;6.30;2.88;;;5.80;76.80;;;;;;5089981;28;20242;-72
2021/12/11 11:22:54;;;;;;;3.22;2.65;;;5.80;76.40;;;;;;5087470;28;20329;-72
2021/12/11 11:25:23;;;;;;;3.00;2.05;;;5.80;76.20;;;;;;5089509;28;20280;-71
2021/12/11 11:27:56;;;;;;;3.28;2.30;;;5.80;75.50;;;;;;5089994;28;20572;-71
2021/12/11 11:30:31;;;;;;;3.60;2.30;;;5.70;75.60;;;;;;5084995;28;20221;-71
2021/12/11 11:33:00;;;;;;;6.72;2.40;;;5.70;75.30;;;;;;5090492;28;20193;-71
2021/12/11 11:35:30;;;;;;;3.05;2.45;;;5.80;75.80;;;;;;5089559;28;20201;-71
2021/12/11 11:38:01;;;;;;;3.40;2.65;;;5.80;75.80;;;;;;5089084;28;20201;-72
2021/12/11 11:40:35;;;;;;;2.83;2.20;;;5.80;75.30;;;;;;5089324;28;20599;-72
2021/12/11 11:43:03;;;;;;;3.17;2.38;;;5.80;75.30;;;;;;5088799;28;20639;-71
2021/12/11 11:45:32;;;;;;;2.88;2.10;;;5.90;74.90;;;;;;5088923;28;20657;-71
2021/12/11 11:48:02;;;;;;;3.00;2.10;;;5.90;75.00;;;;;;5088572;28;20360;-71
2021/12/11 11:50:32;;;;;;;3.45;2.78;;;6.00;75.20;;;;;;5088287;28;20619;-71
2021/12/11 11:52:59;;;;;;;3.50;2.55;;;6.10;75.20;;;;;;5089915;28;20202;-72
2021/12/11 11:55:30;;;;;;;3.60;2.97;;;6.10;74.70;;;;;;5087672;28;20201;-71
2021/12/11 11:58:00;;;;;;;3.35;2.38;;;6.20;74.60;;;;;;5085191;28;20194;-71
2021/12/11 12:00:41;;;;;;;3.30;2.47;;;6.10;73.80;;;;;;5088893;28;20197;-71
2021/12/11 12:03:16;;;;;;;2.75;2.20;;;6.10;73.70;;;;;;5088837;28;20201;-74
2021/12/11 12:05:49;;;;;;;3.15;2.25;;;6.10;73.80;;;;;;5087164;28;20242;-71
2021/12/11 12:08:16;;;;;;;2.60;2.00;;;6.10;73.70;;;;;;5087389;28;20193;-72
2021/12/11 12:10:45;;;;;;;3.00;1.90;;;6.10;73.60;;;;;;5087737;28;20217;-71
2021/12/11 12:13:13;;;;;;;3.08;2.15;;;6.10;73.80;;;;;;5086357;28;20775;-70
2021/12/11 12:15:48;;;;;;;3.20;2.55;;;5.90;73.50;;;;;;5087882;28;20217;-72
2021/12/11 12:18:29;;;;;;;4.60;2.22;;;5.80;74.10;;;;;;5088537;28;20197;-71
2021/12/11 12:20:58;;;;;;;2.97;2.50;;;5.80;74.30;;;;;;5088538;28;20894;-70
2021/12/11 12:23:31;;;;;;;2.90;1.67;;;5.80;74.40;;;;;;5088119;28;20296;-71
2021/12/11 12:26:04;;;;;;;2.20;1.70;;;5.80;74.30;;;;;;5087974;28;20547;-70
2021/12/11 12:28:34;;;;;;;2.90;2.08;;;5.70;74.20;;;;;;5087894;28;20268;-72
2021/12/11 12:31:06;;;;;;;2.75;1.50;;;5.60;73.30;;;;;;5088904;28;20334;-71
2021/12/11 12:33:37;;;;;;;2.40;1.23;;;5.50;73.20;;;;;;5089581;28;20221;-72
2021/12/11 12:36:08;;;;;;;2.08;1.40;;;5.30;73.40;;;;;;5088520;28;20201;-71
2021/12/11 12:38:36;;;;;;;3.60;1.77;;;5.30;74.00;;;;;;5089967;28;20208;-72
2021/12/11 12:41:09;;;;;;;2.15;1.20;;;5.30;74.10;;;;;;5089414;28;20202;-71
2021/12/11 12:44:16;;;;;;;2.00;1.20;;;5.30;73.90;;;;;;5089191;28;20284;-72
2021/12/11 12:46:50;;;;;;;2.42;1.33;;;5.30;73.70;;;;;;5087222;28;20201;-72
2021/12/11 12:49:24;;;;;;;3.17;1.40;;;5.30;74.70;;;;;;5091491;28;20198;-71
2021/12/11 12:51:51;;;;;;;2.45;1.35;;;5.30;74.10;;;;;;5092685;28;20239;-72
2021/12/11 12:54:22;;;;;;;1.90;1.15;;;5.30;73.50;;;;;;5092649;28;20190;-72
2021/12/11 12:56:53;;;;;;;2.00;1.30;;;5.40;74.00;;;;;;5091769;28;20250;-71
2021/12/11 12:59:26;;;;;;;2.05;1.52;;;5.50;73.40;;;;;;5092621;28;20232;-71
2021/12/11 13:01:58;;;;;;;2.72;1.73;;;5.50;73.10;;;;;;5091546;28;20288;-71
2021/12/11 13:04:37;;;;;;;2.05;1.55;;;5.60;72.90;;;;;;5091061;28;20219;-72
2021/12/11 13:07:09;;;;;;;2.70;1.95;;;5.60;72.80;;;;;;5090600;28;20288;-71
2021/12/11 13:09:42;;;;;;;2.60;2.20;;;5.70;72.60;;;;;;5090834;28;20189;-72
2021/12/11 13:12:18;;;;;;;3.50;2.65;;;5.60;72.20;;;;;;5091158;28;20225;-71
2021/12/11 13:14:49;;;;;;;5.43;4.03;;;5.50;72.00;;;;;;5091577;28;20205;-71
2021/12/11 13:17:22;;;;;;;3.40;2.40;;;5.50;72.20;;;;;;5090683;28;20231;-72